sensor_id;sensor_type;location;lat;lon;timestamp;temperature;humidity
20167;DHT22;10243;49.118;8.508;2022-09-27T00:02:07;13.80;99.90
20167;DHT22;10243;49.118;8.508;2022-09-27T00:05:12;13.80;99.90
20167;DHT22;10243;49.118;8.508;2022-09-27T00:08:14;13.70;99.90
20167;DHT22;10243;49.118;8.508;2022-09-27T00:11:22;13.80;99.90
20167;DHT22;10243;49.118;8.508;2022-09-27T00:14:25;13.80;99.90
20167;DHT22;10243;49.118;8.508;2022-09-27T00:17:29;13.70;99.90
20167;DHT22;10243;49.118;8.508;2022-09-27T00:20:33;13.70;99.90
20167;DHT22;10243;49.118;8.508;2022-09-27T00:23:35;13.70;99.90
20167;DHT22;10243;49.118;8.508;2022-09-27T00:26:37;13.80;99.90
20167;DHT22;10243;49.118;8.508;2022-09-27T00:29:39;13.80;99.90
20167;DHT22;10243;49.118;8.508;2022-09-27T00:32:42;13.80;99.90
20167;DHT22;10243;49.118;8.508;2022-09-27T00:35:45;13.80;99.90
20167;DHT22;10243;49.118;8.508;2022-09-27T00:38:47;13.80;99.90
20167;DHT22;10243;49.118;8.508;2022-09-27T00:41:49;13.80;99.90
20167;DHT22;10243;49.118;8.508;2022-09-27T00:45:01;13.70;99.90
20167;DHT22;10243;49.118;8.508;2022-09-27T00:48:05;13.80;99.90
20167;DHT22;10243;49.118;8.508;2022-09-27T00:51:08;13.90;99.90
20167;DHT22;10243;49.118;8.508;2022-09-27T00:54:12;13.90;99.90
20167;DHT22;10243;49.118;8.508;2022-09-27T00:57:16;13.90;99.90
20167;DHT22;10243;49.118;8.508;2022-09-27T01:00:20;13.90;99.90
20167;DHT22;10243;49.118;8.508;2022-09-27T01:03:30;13.90;99.90
20167;DHT22;10243;49.118;8.508;2022-09-27T01:06:34;13.90;99.90
20167;DHT22;10243;49.118;8.508;2022-09-27T01:09:37;13.90;99.90
20167;DHT22;10243;49.118;8.508;2022-09-27T01:12:48;13.90;99.90
20167;DHT22;10243;49.118;8.508;2022-09-27T01:15:59;13.80;99.90
20167;DHT22;10243;49.118;8.508;2022-09-27T01:19:09;13.80;99.90
20167;DHT22;10243;49.118;8.508;2022-09-27T01:22:17;13.90;99.90
20167;DHT22;10243;49.118;8.508;2022-09-27T01:25:38;13.80;99.90
20167;DHT22;10243;49.118;8.508;2022-09-27T01:28:56;13.80;99.90
20167;DHT22;10243;49.118;8.508;2022-09-27T01:32:08;13.80;99.90
20167;DHT22;10243;49.118;8.508;2022-09-27T01:35:19;13.70;99.90
20167;DHT22;10243;49.118;8.508;2022-09-27T01:38:29;13.70;99.90
20167;DHT22;10243;49.118;8.508;2022-09-27T01:41:36;13.70;99.90
20167;DHT22;10243;49.118;8.508;2022-09-27T01:45:03;13.70;99.90
20167;DHT22;10243;49.118;8.508;2022-09-27T01:48:21;13.60;99.90
20167;DHT22;10243;49.118;8.508;2022-09-27T01:51:29;13.70;99.90
20167;DHT22;10243;49.118;8.508;2022-09-27T01:54:37;13.80;99.90
20167;DHT22;10243;49.118;8.508;2022-09-27T01:58:09;13.90;99.90
20167;DHT22;10243;49.118;8.508;2022-09-27T02:01:15;13.90;99.90
20167;DHT22;10243;49.118;8.508;2022-09-27T02:04:23;13.90;99.90
20167;DHT22;10243;49.118;8.508;2022-09-27T02:07:54;14.00;99.90
20167;DHT22;10243;49.118;8.508;2022-09-27T02:11:00;13.90;99.90
20167;DHT22;10243;49.118;8.508;2022-09-27T02:14:10;13.90;99.90
20167;DHT22;10243;49.118;8.508;2022-09-27T02:17:27;13.80;99.90
20167;DHT22;10243;49.118;8.508;2022-09-27T02:20:38;13.80;99.90
20167;DHT22;10243;49.118;8.508;2022-09-27T02:23:45;13.80;99.90
20167;DHT22;10243;49.118;8.508;2022-09-27T02:26:52;13.80;99.90
20167;DHT22;10243;49.118;8.508;2022-09-27T02:30:00;13.90;99.90
20167;DHT22;10243;49.118;8.508;2022-09-27T02:33:04;13.80;99.90
20167;DHT22;10243;49.118;8.508;2022-09-27T02:36:08;13.80;99.90
20167;DHT22;10243;49.118;8.508;2022-09-27T02:39:11;13.80;99.90
20167;DHT22;10243;49.118;8.508;2022-09-27T02:42:13;13.80;99.90
20167;DHT22;10243;49.118;8.508;2022-09-27T02:45:17;13.80;99.90
20167;DHT22;10243;49.118;8.508;2022-09-27T02:48:27;13.80;99.90
20167;DHT22;10243;49.118;8.508;2022-09-27T02:51:42;13.80;99.90
20167;DHT22;10243;49.118;8.508;2022-09-27T02:54:57;13.80;99.90
20167;DHT22;10243;49.118;8.508;2022-09-27T02:58:30;13.70;99.90
20167;DHT22;10243;49.118;8.508;2022-09-27T03:02:13;13.70;99.90
20167;DHT22;10243;49.118;8.508;2022-09-27T03:05:41;13.60;99.90
20167;DHT22;10243;49.118;8.508;2022-09-27T03:08:46;13.60;99.90
20167;DHT22;10243;49.118;8.508;2022-09-27T03:11:48;13.70;99.90
20167;DHT22;10243;49.118;8.508;2022-09-27T03:14:50;13.70;99.90
20167;DHT22;10243;49.118;8.508;2022-09-27T03:18:15;13.60;99.90
20167;DHT22;10243;49.118;8.508;2022-09-27T03:21:36;13.60;99.90
20167;DHT22;10243;49.118;8.508;2022-09-27T03:24:40;13.50;99.90
20167;DHT22;10243;49.118;8.508;2022-09-27T03:27:42;13.60;99.90
20167;DHT22;10243;49.118;8.508;2022-09-27T03:30:45;13.60;99.90
20167;DHT22;10243;49.118;8.508;2022-09-27T03:34:04;13.50;99.90
20167;DHT22;10243;49.118;8.508;2022-09-27T03:37:06;13.50;99.90
20167;DHT22;10243;49.118;8.508;2022-09-27T03:40:11;13.50;99.90
20167;DHT22;10243;49.118;8.508;2022-09-27T03:43:15;13.60;99.90
20167;DHT22;10243;49.118;8.508;2022-09-27T03:46:19;13.60;99.90
20167;DHT22;10243;49.118;8.508;2022-09-27T03:49:21;13.60;99.90
20167;DHT22;10243;49.118;8.508;2022-09-27T03:52:23;13.50;99.90
20167;DHT22;10243;49.118;8.508;2022-09-27T03:55:28;13.60;99.90
20167;DHT22;10243;49.118;8.508;2022-09-27T03:58:30;13.60;99.90
20167;DHT22;10243;49.118;8.508;2022-09-27T04:01:32;13.70;99.90
20167;DHT22;10243;49.118;8.508;2022-09-27T04:04:51;13.70;99.90
20167;DHT22;10243;49.118;8.508;2022-09-27T04:07:53;13.60;99.90
20167;DHT22;10243;49.118;8.508;2022-09-27T04:10:57;13.60;99.90
20167;DHT22;10243;49.118;8.508;2022-09-27T04:14:00;13.60;99.90
20167;DHT22;10243;49.118;8.508;2022-09-27T04:17:05;13.50;99.90
20167;DHT22;10243;49.118;8.508;2022-09-27T04:20:25;13.40;99.90
20167;DHT22;10243;49.118;8.508;2022-09-27T04:23:27;13.60;99.90
20167;DHT22;10243;49.118;8.508;2022-09-27T04:26:30;13.50;99.90
20167;DHT22;10243;49.118;8.508;2022-09-27T04:29:37;13.50;99.90
20167;DHT22;10243;49.118;8.508;2022-09-27T04:32:55;13.50;99.90
20167;DHT22;10243;49.118;8.508;2022-09-27T04:36:21;13.60;99.90
20167;DHT22;10243;49.118;8.508;2022-09-27T04:39:48;13.50;99.90
20167;DHT22;10243;49.118;8.508;2022-09-27T04:42:51;13.40;99.90
20167;DHT22;10243;49.118;8.508;2022-09-27T04:45:53;13.40;99.90
20167;DHT22;10243;49.118;8.508;2022-09-27T04:48:55;13.40;99.90
20167;DHT22;10243;49.118;8.508;2022-09-27T04:51:57;13.40;99.90
20167;DHT22;10243;49.118;8.508;2022-09-27T04:54:59;13.40;99.90
20167;DHT22;10243;49.118;8.508;2022-09-27T04:58:05;13.40;99.90
20167;DHT22;10243;49.118;8.508;2022-09-27T05:01:07;13.40;99.90
20167;DHT22;10243;49.118;8.508;2022-09-27T05:04:28;13.50;99.90
20167;DHT22;10243;49.118;8.508;2022-09-27T05:07:33;13.40;99.90
20167;DHT22;10243;49.118;8.508;2022-09-27T05:10:39;13.40;99.90
20167;DHT22;10243;49.118;8.508;2022-09-27T05:13:42;13.30;99.90
20167;DHT22;10243;49.118;8.508;2022-09-27T05:16:44;13.20;99.90
20167;DHT22;10243;49.118;8.508;2022-09-27T05:20:09;13.30;99.90
20167;DHT22;10243;49.118;8.508;2022-09-27T05:23:46;13.20;99.90
20167;DHT22;10243;49.118;8.508;2022-09-27T05:26:49;13.30;99.90
20167;DHT22;10243;49.118;8.508;2022-09-27T05:29:52;13.30;99.90
20167;DHT22;10243;49.118;8.508;2022-09-27T05:33:05;13.40;99.90
20167;DHT22;10243;49.118;8.508;2022-09-27T05:36:37;13.50;99.90
20167;DHT22;10243;49.118;8.508;2022-09-27T05:39:39;13.60;99.90
20167;DHT22;10243;49.118;8.508;2022-09-27T05:42:41;13.60;99.90
20167;DHT22;10243;49.118;8.508;2022-09-27T05:45:45;13.50;99.90
20167;DHT22;10243;49.118;8.508;2022-09-27T05:48:49;13.50;99.90
20167;DHT22;10243;49.118;8.508;2022-09-27T05:51:50;13.50;99.90
20167;DHT22;10243;49.118;8.508;2022-09-27T05:54:52;13.50;99.90
20167;DHT22;10243;49.118;8.508;2022-09-27T05:57:56;13.50;99.90
20167;DHT22;10243;49.118;8.508;2022-09-27T06:01:07;13.70;99.90
20167;DHT22;10243;49.118;8.508;2022-09-27T06:04:33;13.70;99.90
20167;DHT22;10243;49.118;8.508;2022-09-27T06:07:57;13.70;99.90
20167;DHT22;10243;49.118;8.508;2022-09-27T06:11:06;13.70;99.90
20167;DHT22;10243;49.118;8.508;2022-09-27T06:14:09;13.80;99.90
20167;DHT22;10243;49.118;8.508;2022-09-27T06:17:23;13.70;99.90
20167;DHT22;10243;49.118;8.508;2022-09-27T06:20:25;13.50;99.90
20167;DHT22;10243;49.118;8.508;2022-09-27T06:23:27;13.60;99.90
20167;DHT22;10243;49.118;8.508;2022-09-27T06:26:32;13.60;99.90
20167;DHT22;10243;49.118;8.508;2022-09-27T06:29:49;13.40;99.90
20167;DHT22;10243;49.118;8.508;2022-09-27T06:33:11;13.40;99.90
20167;DHT22;10243;49.118;8.508;2022-09-27T06:36:15;13.40;99.90
20167;DHT22;10243;49.118;8.508;2022-09-27T06:39:17;13.60;99.90
20167;DHT22;10243;49.118;8.508;2022-09-27T06:42:46;13.60;99.90
20167;DHT22;10243;49.118;8.508;2022-09-27T06:45:54;13.60;99.90
20167;DHT22;10243;49.118;8.508;2022-09-27T06:49:17;13.50;99.90
20167;DHT22;10243;49.118;8.508;2022-09-27T06:52:20;13.40;99.90
20167;DHT22;10243;49.118;8.508;2022-09-27T06:55:22;13.50;99.90
20167;DHT22;10243;49.118;8.508;2022-09-27T07:02:19;13.60;99.90
20167;DHT22;10243;49.118;8.508;2022-09-27T07:05:53;13.40;99.90
20167;DHT22;10243;49.118;8.508;2022-09-27T07:09:14;13.30;99.90
20167;DHT22;10243;49.118;8.508;2022-09-27T07:12:16;13.20;99.90
20167;DHT22;10243;49.118;8.508;2022-09-27T07:15:23;13.40;99.90
20167;DHT22;10243;49.118;8.508;2022-09-27T07:18:25;13.30;99.90
20167;DHT22;10243;49.118;8.508;2022-09-27T07:21:29;13.50;99.90
20167;DHT22;10243;49.118;8.508;2022-09-27T07:24:32;13.40;99.90
20167;DHT22;10243;49.118;8.508;2022-09-27T07:27:34;13.40;99.90
20167;DHT22;10243;49.118;8.508;2022-09-27T07:30:36;13.40;99.90
20167;DHT22;10243;49.118;8.508;2022-09-27T07:33:38;13.50;99.90
20167;DHT22;10243;49.118;8.508;2022-09-27T07:36:43;13.60;99.90
20167;DHT22;10243;49.118;8.508;2022-09-27T07:39:46;13.60;99.90
20167;DHT22;10243;49.118;8.508;2022-09-27T07:42:53;13.80;99.90
20167;DHT22;10243;49.118;8.508;2022-09-27T07:45:57;13.90;99.90
20167;DHT22;10243;49.118;8.508;2022-09-27T07:49:11;14.00;99.90
20167;DHT22;10243;49.118;8.508;2022-09-27T07:52:40;13.90;99.90
20167;DHT22;10243;49.118;8.508;2022-09-27T07:56:00;14.00;99.90
20167;DHT22;10243;49.118;8.508;2022-09-27T07:59:03;14.10;99.90
20167;DHT22;10243;49.118;8.508;2022-09-27T08:02:06;14.00;99.90
20167;DHT22;10243;49.118;8.508;2022-09-27T08:05:09;13.90;99.90
20167;DHT22;10243;49.118;8.508;2022-09-27T08:08:18;14.00;99.90
20167;DHT22;10243;49.118;8.508;2022-09-27T08:11:22;14.20;99.90
20167;DHT22;10243;49.118;8.508;2022-09-27T08:14:24;14.20;99.90
20167;DHT22;10243;49.118;8.508;2022-09-27T08:17:27;14.40;99.90
20167;DHT22;10243;49.118;8.508;2022-09-27T08:20:41;14.50;99.90
20167;DHT22;10243;49.118;8.508;2022-09-27T08:24:11;14.30;99.90
20167;DHT22;10243;49.118;8.508;2022-09-27T08:27:36;14.30;99.90
20167;DHT22;10243;49.118;8.508;2022-09-27T08:30:51;14.30;99.90
20167;DHT22;10243;49.118;8.508;2022-09-27T08:33:53;14.40;99.90
20167;DHT22;10243;49.118;8.508;2022-09-27T08:36:56;14.40;99.90
20167;DHT22;10243;49.118;8.508;2022-09-27T08:40:00;14.40;99.90
20167;DHT22;10243;49.118;8.508;2022-09-27T08:43:14;14.40;99.90
20167;DHT22;10243;49.118;8.508;2022-09-27T08:46:26;14.50;99.90
20167;DHT22;10243;49.118;8.508;2022-09-27T08:49:37;14.40;99.90
20167;DHT22;10243;49.118;8.508;2022-09-27T08:52:44;14.30;99.90
20167;DHT22;10243;49.118;8.508;2022-09-27T08:55:53;14.50;99.90
20167;DHT22;10243;49.118;8.508;2022-09-27T08:59:05;14.70;99.90
20167;DHT22;10243;49.118;8.508;2022-09-27T09:02:18;14.80;99.90
20167;DHT22;10243;49.118;8.508;2022-09-27T09:05:27;14.70;99.90
20167;DHT22;10243;49.118;8.508;2022-09-27T09:08:36;14.70;99.90
20167;DHT22;10243;49.118;8.508;2022-09-27T09:11:49;14.60;99.90
20167;DHT22;10243;49.118;8.508;2022-09-27T09:15:28;14.50;99.90
20167;DHT22;10243;49.118;8.508;2022-09-27T09:18:59;14.70;99.90
20167;DHT22;10243;49.118;8.508;2022-09-27T09:22:49;14.90;99.90
20167;DHT22;10243;49.118;8.508;2022-09-27T09:26:01;14.90;99.90
20167;DHT22;10243;49.118;8.508;2022-09-27T09:29:16;14.80;99.90
20167;DHT22;10243;49.118;8.508;2022-09-27T09:32:30;14.90;99.90
20167;DHT22;10243;49.118;8.508;2022-09-27T09:35:40;14.90;99.90
20167;DHT22;10243;49.118;8.508;2022-09-27T09:38:46;14.80;99.90
20167;DHT22;10243;49.118;8.508;2022-09-27T09:42:00;14.90;99.90
20167;DHT22;10243;49.118;8.508;2022-09-27T09:45:04;14.80;99.90
20167;DHT22;10243;49.118;8.508;2022-09-27T09:48:18;14.70;99.90
20167;DHT22;10243;49.118;8.508;2022-09-27T09:51:27;14.80;99.90
20167;DHT22;10243;49.118;8.508;2022-09-27T09:54:36;15.00;99.90
20167;DHT22;10243;49.118;8.508;2022-09-27T09:57:42;15.00;99.90
20167;DHT22;10243;49.118;8.508;2022-09-27T10:00:55;14.90;99.90
20167;DHT22;10243;49.118;8.508;2022-09-27T10:04:01;15.00;99.90
20167;DHT22;10243;49.118;8.508;2022-09-27T10:07:04;14.90;99.90
20167;DHT22;10243;49.118;8.508;2022-09-27T10:10:14;14.90;99.90
20167;DHT22;10243;49.118;8.508;2022-09-27T10:13:46;14.50;99.90
20167;DHT22;10243;49.118;8.508;2022-09-27T10:16:53;14.40;99.90
20167;DHT22;10243;49.118;8.508;2022-09-27T10:19:57;14.50;99.90
20167;DHT22;10243;49.118;8.508;2022-09-27T10:23:05;14.50;99.90
20167;DHT22;10243;49.118;8.508;2022-09-27T10:26:26;14.70;99.90
20167;DHT22;10243;49.118;8.508;2022-09-27T10:29:30;14.80;99.90
20167;DHT22;10243;49.118;8.508;2022-09-27T10:32:36;14.80;99.90
20167;DHT22;10243;49.118;8.508;2022-09-27T10:36:23;14.80;99.90
20167;DHT22;10243;49.118;8.508;2022-09-27T10:39:27;15.20;99.90
20167;DHT22;10243;49.118;8.508;2022-09-27T10:42:32;15.40;99.90
20167;DHT22;10243;49.118;8.508;2022-09-27T10:45:36;15.40;99.90
20167;DHT22;10243;49.118;8.508;2022-09-27T10:49:08;15.40;99.90
20167;DHT22;10243;49.118;8.508;2022-09-27T10:52:16;15.20;99.90
20167;DHT22;10243;49.118;8.508;2022-09-27T10:55:24;15.10;99.90
20167;DHT22;10243;49.118;8.508;2022-09-27T10:58:30;14.90;99.90
20167;DHT22;10243;49.118;8.508;2022-09-27T11:01:42;14.70;99.90
20167;DHT22;10243;49.118;8.508;2022-09-27T11:05:05;14.40;99.90
20167;DHT22;10243;49.118;8.508;2022-09-27T11:08:22;14.50;99.90
20167;DHT22;10243;49.118;8.508;2022-09-27T11:11:34;14.50;99.90
20167;DHT22;10243;49.118;8.508;2022-09-27T11:14:37;14.70;99.90
20167;DHT22;10243;49.118;8.508;2022-09-27T11:17:46;14.70;99.90
20167;DHT22;10243;49.118;8.508;2022-09-27T11:20:57;14.70;99.90
20167;DHT22;10243;49.118;8.508;2022-09-27T11:24:12;14.60;99.90
20167;DHT22;10243;49.118;8.508;2022-09-27T11:27:23;14.60;99.90
20167;DHT22;10243;49.118;8.508;2022-09-27T11:30:32;14.60;99.90
20167;DHT22;10243;49.118;8.508;2022-09-27T11:34:16;14.60;99.90
20167;DHT22;10243;49.118;8.508;2022-09-27T11:37:28;14.60;99.90
20167;DHT22;10243;49.118;8.508;2022-09-27T11:40:41;14.70;99.90
20167;DHT22;10243;49.118;8.508;2022-09-27T11:44:16;14.80;99.90
20167;DHT22;10243;49.118;8.508;2022-09-27T11:47:29;14.80;99.90
20167;DHT22;10243;49.118;8.508;2022-09-27T11:50:59;14.90;99.90
20167;DHT22;10243;49.118;8.508;2022-09-27T11:54:13;14.80;99.90
20167;DHT22;10243;49.118;8.508;2022-09-27T11:57:22;14.90;99.90
20167;DHT22;10243;49.118;8.508;2022-09-27T12:00:41;14.90;99.90
20167;DHT22;10243;49.118;8.508;2022-09-27T12:04:08;14.90;99.90
20167;DHT22;10243;49.118;8.508;2022-09-27T12:07:23;14.90;99.90
20167;DHT22;10243;49.118;8.508;2022-09-27T12:10:28;15.20;99.90
20167;DHT22;10243;49.118;8.508;2022-09-27T12:13:34;15.00;99.90
20167;DHT22;10243;49.118;8.508;2022-09-27T12:16:40;15.10;99.90
20167;DHT22;10243;49.118;8.508;2022-09-27T12:19:45;15.00;99.90
20167;DHT22;10243;49.118;8.508;2022-09-27T12:22:56;15.10;99.90
20167;DHT22;10243;49.118;8.508;2022-09-27T12:26:16;15.50;99.90
20167;DHT22;10243;49.118;8.508;2022-09-27T12:29:21;15.50;99.90
20167;DHT22;10243;49.118;8.508;2022-09-27T12:32:32;15.60;99.90
20167;DHT22;10243;49.118;8.508;2022-09-27T12:35:42;15.80;99.90
20167;DHT22;10243;49.118;8.508;2022-09-27T12:38:49;15.80;99.90
20167;DHT22;10243;49.118;8.508;2022-09-27T12:41:57;16.00;99.90
20167;DHT22;10243;49.118;8.508;2022-09-27T12:45:13;16.20;99.90
20167;DHT22;10243;49.118;8.508;2022-09-27T12:48:24;16.00;99.90
20167;DHT22;10243;49.118;8.508;2022-09-27T12:51:32;15.80;99.60
20167;DHT22;10243;49.118;8.508;2022-09-27T12:54:53;15.70;99.90
20167;DHT22;10243;49.118;8.508;2022-09-27T12:58:14;15.60;99.90
20167;DHT22;10243;49.118;8.508;2022-09-27T13:01:26;15.40;99.90
20167;DHT22;10243;49.118;8.508;2022-09-27T13:04:45;15.20;99.90
20167;DHT22;10243;49.118;8.508;2022-09-27T13:08:03;15.00;99.90
20167;DHT22;10243;49.118;8.508;2022-09-27T13:11:12;14.90;99.90
20167;DHT22;10243;49.118;8.508;2022-09-27T13:14:19;14.60;99.90
20167;DHT22;10243;49.118;8.508;2022-09-27T13:17:48;14.60;99.90
20167;DHT22;10243;49.118;8.508;2022-09-27T13:21:03;14.90;99.90
20167;DHT22;10243;49.118;8.508;2022-09-27T13:24:38;15.20;99.90
20167;DHT22;10243;49.118;8.508;2022-09-27T13:27:45;15.60;99.90
20167;DHT22;10243;49.118;8.508;2022-09-27T13:30:57;15.60;99.90
20167;DHT22;10243;49.118;8.508;2022-09-27T13:33:59;15.50;99.90
20167;DHT22;10243;49.118;8.508;2022-09-27T13:37:30;15.50;99.90
20167;DHT22;10243;49.118;8.508;2022-09-27T13:40:38;15.30;99.90
20167;DHT22;10243;49.118;8.508;2022-09-27T13:44:05;14.90;99.90
20167;DHT22;10243;49.118;8.508;2022-09-27T13:47:24;15.00;99.90
20167;DHT22;10243;49.118;8.508;2022-09-27T13:50:37;15.10;99.90
20167;DHT22;10243;49.118;8.508;2022-09-27T13:53:57;14.90;99.90
20167;DHT22;10243;49.118;8.508;2022-09-27T13:57:00;15.00;99.90
20167;DHT22;10243;49.118;8.508;2022-09-27T14:00:10;14.90;99.90
20167;DHT22;10243;49.118;8.508;2022-09-27T14:03:27;14.90;99.90
20167;DHT22;10243;49.118;8.508;2022-09-27T14:06:58;14.60;99.90
20167;DHT22;10243;49.118;8.508;2022-09-27T14:10:04;14.50;99.90
20167;DHT22;10243;49.118;8.508;2022-09-27T14:13:15;14.40;99.90
20167;DHT22;10243;49.118;8.508;2022-09-27T14:16:29;14.40;99.90
20167;DHT22;10243;49.118;8.508;2022-09-27T14:19:32;14.30;99.90
20167;DHT22;10243;49.118;8.508;2022-09-27T14:22:35;14.50;99.90
20167;DHT22;10243;49.118;8.508;2022-09-27T14:25:44;14.50;99.90
20167;DHT22;10243;49.118;8.508;2022-09-27T14:28:47;14.50;99.90
20167;DHT22;10243;49.118;8.508;2022-09-27T14:32:04;14.60;99.90
20167;DHT22;10243;49.118;8.508;2022-09-27T14:35:21;14.70;99.90
20167;DHT22;10243;49.118;8.508;2022-09-27T14:38:42;15.00;99.90
20167;DHT22;10243;49.118;8.508;2022-09-27T14:41:54;14.90;99.90
20167;DHT22;10243;49.118;8.508;2022-09-27T14:45:03;15.00;99.90
20167;DHT22;10243;49.118;8.508;2022-09-27T14:48:18;15.20;99.90
20167;DHT22;10243;49.118;8.508;2022-09-27T14:51:26;15.10;99.90
20167;DHT22;10243;49.118;8.508;2022-09-27T14:54:29;15.10;99.90
20167;DHT22;10243;49.118;8.508;2022-09-27T14:57:33;14.90;99.90
20167;DHT22;10243;49.118;8.508;2022-09-27T15:00:36;14.70;99.90
20167;DHT22;10243;49.118;8.508;2022-09-27T15:03:41;14.80;99.90
20167;DHT22;10243;49.118;8.508;2022-09-27T15:06:45;14.70;99.90
20167;DHT22;10243;49.118;8.508;2022-09-27T15:09:50;14.80;99.90
20167;DHT22;10243;49.118;8.508;2022-09-27T15:12:54;15.00;99.90
20167;DHT22;10243;49.118;8.508;2022-09-27T15:15:59;15.00;99.90
20167;DHT22;10243;49.118;8.508;2022-09-27T15:19:10;15.10;99.90
20167;DHT22;10243;49.118;8.508;2022-09-27T15:22:21;15.00;99.90
20167;DHT22;10243;49.118;8.508;2022-09-27T15:25:26;14.90;99.90
20167;DHT22;10243;49.118;8.508;2022-09-27T15:28:35;14.90;99.90
20167;DHT22;10243;49.118;8.508;2022-09-27T15:31:38;14.70;99.90
20167;DHT22;10243;49.118;8.508;2022-09-27T15:34:42;14.40;99.90
20167;DHT22;10243;49.118;8.508;2022-09-27T15:37:44;14.40;99.90
20167;DHT22;10243;49.118;8.508;2022-09-27T15:41:08;14.40;99.90
20167;DHT22;10243;49.118;8.508;2022-09-27T15:44:36;14.50;99.90
20167;DHT22;10243;49.118;8.508;2022-09-27T15:47:46;14.60;99.90
20167;DHT22;10243;49.118;8.508;2022-09-27T15:50:49;14.80;99.90
20167;DHT22;10243;49.118;8.508;2022-09-27T15:53:54;14.90;99.90
20167;DHT22;10243;49.118;8.508;2022-09-27T15:56:59;14.80;99.90
20167;DHT22;10243;49.118;8.508;2022-09-27T16:00:09;14.60;99.90
20167;DHT22;10243;49.118;8.508;2022-09-27T16:03:13;14.50;99.90
20167;DHT22;10243;49.118;8.508;2022-09-27T16:06:15;14.40;99.90
20167;DHT22;10243;49.118;8.508;2022-09-27T16:09:19;14.20;99.90
20167;DHT22;10243;49.118;8.508;2022-09-27T16:12:22;14.10;99.90
20167;DHT22;10243;49.118;8.508;2022-09-27T16:15:26;14.20;99.90
20167;DHT22;10243;49.118;8.508;2022-09-27T16:18:28;13.90;99.90
20167;DHT22;10243;49.118;8.508;2022-09-27T16:21:31;14.00;99.90
20167;DHT22;10243;49.118;8.508;2022-09-27T16:24:32;14.00;99.90
20167;DHT22;10243;49.118;8.508;2022-09-27T16:27:34;13.90;99.90
20167;DHT22;10243;49.118;8.508;2022-09-27T16:30:38;13.90;99.90
20167;DHT22;10243;49.118;8.508;2022-09-27T16:33:39;13.90;99.90
20167;DHT22;10243;49.118;8.508;2022-09-27T16:36:42;14.00;99.90
20167;DHT22;10243;49.118;8.508;2022-09-27T16:39:43;13.70;99.90
20167;DHT22;10243;49.118;8.508;2022-09-27T16:42:47;13.70;99.90
20167;DHT22;10243;49.118;8.508;2022-09-27T16:45:53;13.50;99.90
20167;DHT22;10243;49.118;8.508;2022-09-27T16:48:58;13.70;99.90
20167;DHT22;10243;49.118;8.508;2022-09-27T16:52:00;13.60;99.90
20167;DHT22;10243;49.118;8.508;2022-09-27T16:55:01;13.70;99.90
20167;DHT22;10243;49.118;8.508;2022-09-27T16:58:03;13.80;99.90
20167;DHT22;10243;49.118;8.508;2022-09-27T17:01:08;13.80;99.90
20167;DHT22;10243;49.118;8.508;2022-09-27T17:04:09;13.70;99.90
20167;DHT22;10243;49.118;8.508;2022-09-27T17:07:12;13.70;99.90
20167;DHT22;10243;49.118;8.508;2022-09-27T17:10:14;13.80;99.90
20167;DHT22;10243;49.118;8.508;2022-09-27T17:13:17;13.90;99.90
20167;DHT22;10243;49.118;8.508;2022-09-27T17:16:21;13.90;99.90
20167;DHT22;10243;49.118;8.508;2022-09-27T17:19:23;13.80;99.90
20167;DHT22;10243;49.118;8.508;2022-09-27T17:22:25;13.80;99.90
20167;DHT22;10243;49.118;8.508;2022-09-27T17:25:26;13.90;99.90
20167;DHT22;10243;49.118;8.508;2022-09-27T17:28:29;13.90;99.90
20167;DHT22;10243;49.118;8.508;2022-09-27T17:31:32;13.80;99.90
20167;DHT22;10243;49.118;8.508;2022-09-27T17:34:34;13.80;99.90
20167;DHT22;10243;49.118;8.508;2022-09-27T17:37:36;13.80;99.90
20167;DHT22;10243;49.118;8.508;2022-09-27T17:40:38;13.70;99.90
20167;DHT22;10243;49.118;8.508;2022-09-27T17:43:42;13.60;99.90
20167;DHT22;10243;49.118;8.508;2022-09-27T17:46:50;13.50;99.90
20167;DHT22;10243;49.118;8.508;2022-09-27T17:50:12;13.40;99.90
20167;DHT22;10243;49.118;8.508;2022-09-27T17:53:26;13.40;99.90
20167;DHT22;10243;49.118;8.508;2022-09-27T17:56:34;13.30;99.90
20167;DHT22;10243;49.118;8.508;2022-09-27T17:59:36;13.20;99.90
20167;DHT22;10243;49.118;8.508;2022-09-27T18:02:40;13.10;99.90
20167;DHT22;10243;49.118;8.508;2022-09-27T18:05:42;13.10;99.90
20167;DHT22;10243;49.118;8.508;2022-09-27T18:08:44;13.10;99.90
20167;DHT22;10243;49.118;8.508;2022-09-27T18:11:45;13.10;99.90
20167;DHT22;10243;49.118;8.508;2022-09-27T18:14:47;12.90;99.90
20167;DHT22;10243;49.118;8.508;2022-09-27T18:17:51;13.00;99.90
20167;DHT22;10243;49.118;8.508;2022-09-27T18:21:00;12.90;99.90
20167;DHT22;10243;49.118;8.508;2022-09-27T18:24:02;12.90;99.90
20167;DHT22;10243;49.118;8.508;2022-09-27T18:27:04;12.90;99.90
20167;DHT22;10243;49.118;8.508;2022-09-27T18:30:07;13.00;99.90
20167;DHT22;10243;49.118;8.508;2022-09-27T18:33:11;12.90;99.90
20167;DHT22;10243;49.118;8.508;2022-09-27T18:36:14;12.90;99.90
20167;DHT22;10243;49.118;8.508;2022-09-27T18:39:17;13.00;99.90
20167;DHT22;10243;49.118;8.508;2022-09-27T18:42:19;13.00;99.90
20167;DHT22;10243;49.118;8.508;2022-09-27T18:45:21;12.90;99.90
20167;DHT22;10243;49.118;8.508;2022-09-27T18:48:24;13.00;99.90
20167;DHT22;10243;49.118;8.508;2022-09-27T18:51:27;13.10;99.90
20167;DHT22;10243;49.118;8.508;2022-09-27T18:54:29;13.10;99.90
20167;DHT22;10243;49.118;8.508;2022-09-27T18:57:31;13.10;99.90
20167;DHT22;10243;49.118;8.508;2022-09-27T19:00:33;13.20;99.90
20167;DHT22;10243;49.118;8.508;2022-09-27T19:03:36;13.20;99.90
20167;DHT22;10243;49.118;8.508;2022-09-27T19:06:39;13.20;99.90
20167;DHT22;10243;49.118;8.508;2022-09-27T19:09:41;13.20;99.90
20167;DHT22;10243;49.118;8.508;2022-09-27T19:12:43;13.20;99.90
20167;DHT22;10243;49.118;8.508;2022-09-27T19:15:54;13.20;99.90
20167;DHT22;10243;49.118;8.508;2022-09-27T19:18:58;13.10;99.90
20167;DHT22;10243;49.118;8.508;2022-09-27T19:22:03;13.00;99.90
20167;DHT22;10243;49.118;8.508;2022-09-27T19:25:06;13.00;99.90
20167;DHT22;10243;49.118;8.508;2022-09-27T19:28:09;13.10;99.90
20167;DHT22;10243;49.118;8.508;2022-09-27T19:31:14;13.00;99.90
20167;DHT22;10243;49.118;8.508;2022-09-27T19:34:17;13.10;99.90
20167;DHT22;10243;49.118;8.508;2022-09-27T19:37:19;13.10;99.90
20167;DHT22;10243;49.118;8.508;2022-09-27T19:40:22;13.10;99.90
20167;DHT22;10243;49.118;8.508;2022-09-27T19:43:24;13.00;99.90
20167;DHT22;10243;49.118;8.508;2022-09-27T19:46:26;13.00;99.90
20167;DHT22;10243;49.118;8.508;2022-09-27T19:49:29;13.10;99.90
20167;DHT22;10243;49.118;8.508;2022-09-27T19:52:32;13.00;99.90
20167;DHT22;10243;49.118;8.508;2022-09-27T19:55:33;13.20;99.90
20167;DHT22;10243;49.118;8.508;2022-09-27T19:58:37;13.20;99.90